createdAt,value
2018-12-09T00:00:51.163Z,0.20
2018-12-09T00:03:21.433Z,0.20
2018-12-09T00:08:19.711Z,0.20
2018-12-09T00:10:50.051Z,0.20
2018-12-09T00:13:19.778Z,0.20
2018-12-09T00:15:49.380Z,0.10
2018-12-09T00:18:19.298Z,0.20
2018-12-09T00:20:48.862Z,0.20
2018-12-09T00:23:18.470Z,0.20
2018-12-09T00:25:50.919Z,0.30
2018-12-09T00:28:20.728Z,0.20
2018-12-09T00:30:50.485Z,0.20
2018-12-09T00:33:20.019Z,0.30
2018-12-09T00:35:49.980Z,0.20
2018-12-09T00:38:19.475Z,0.30
2018-12-09T00:40:48.975Z,0.27
2018-12-09T00:43:18.530Z,0.43
2018-12-09T00:45:50.843Z,0.20
2018-12-09T00:48:20.791Z,0.20
2018-12-09T00:50:50.482Z,0.27
2018-12-09T00:53:19.885Z,0.47
2018-12-09T00:55:49.545Z,0.40
2018-12-09T00:58:18.966Z,0.30
2018-12-09T01:00:48.726Z,0.20
2018-12-09T01:03:18.475Z,0.17
2018-12-09T01:05:48.573Z,0.20
2018-12-09T01:08:18.199Z,0.30
2018-12-09T01:10:47.817Z,0.20
2018-12-09T01:13:17.418Z,0.20
2018-12-09T01:15:47.003Z,0.20
2018-12-09T01:18:16.510Z,0.10
2018-12-09T01:20:46.200Z,0.20
2018-12-09T01:23:15.770Z,0.30
2018-12-09T01:25:45.540Z,0.20
2018-12-09T01:28:14.112Z,0.30
2018-12-09T01:30:43.457Z,0.20
2018-12-09T01:33:11.197Z,0.20
2018-12-09T01:35:40.883Z,0.13
2018-12-09T01:38:11.674Z,0.20
2018-12-09T01:40:47.486Z,0.30
2018-12-09T01:43:15.745Z,0.40
2018-12-09T01:45:45.464Z,0.30
2018-12-09T01:48:15.093Z,0.20
2018-12-09T01:50:44.650Z,0.20
2018-12-09T01:53:27.654Z,0.37
2018-12-09T01:55:58.033Z,0.20
2018-12-09T01:58:30.328Z,0.27
2018-12-09T02:01:00.958Z,0.37
2018-12-09T02:03:30.707Z,0.40
2018-12-09T02:06:00.290Z,0.40
2018-12-09T02:08:27.948Z,0.33
2018-12-09T02:10:57.711Z,0.20
2018-12-09T02:13:28.090Z,0.20
2018-12-09T02:15:57.752Z,0.30
2018-12-09T02:18:27.620Z,0.20
2018-12-09T02:20:57.211Z,0.20
2018-12-09T02:23:27.006Z,0.30
2018-12-09T02:25:57.255Z,0.20
2018-12-09T02:28:27.448Z,0.40
2018-12-09T02:30:57.439Z,0.20
2018-12-09T02:33:26.990Z,0.20
2018-12-09T02:35:54.747Z,0.30
2018-12-09T02:38:22.241Z,0.30
2018-12-09T02:40:51.908Z,0.70
2018-12-09T02:43:21.582Z,0.40
2018-12-09T02:45:51.257Z,0.47
2018-12-09T02:48:21.080Z,0.70
2018-12-09T02:50:50.924Z,0.80
2018-12-09T02:53:20.637Z,0.50
2018-12-09T02:55:50.339Z,0.40
2018-12-09T02:58:20.077Z,0.40
2018-12-09T03:00:50.331Z,0.50
2018-12-09T03:03:18.495Z,0.73
2018-12-09T03:05:50.848Z,0.60
2018-12-09T03:08:20.671Z,1.10
2018-12-09T03:10:53.203Z,0.90
2018-12-09T03:13:23.776Z,1.00
2018-12-09T03:15:53.567Z,0.87
2018-12-09T03:18:23.164Z,0.80
2018-12-09T03:20:52.863Z,0.97
2018-12-09T03:23:23.588Z,1.30
2018-12-09T03:25:53.986Z,1.20
2018-12-09T03:28:23.488Z,1.30
2018-12-09T03:30:56.084Z,0.83
2018-12-09T03:33:26.806Z,0.90
2018-12-09T03:35:56.748Z,1.03
2018-12-09T03:38:26.313Z,1.10
2018-12-09T03:40:56.132Z,0.77
2018-12-09T03:43:25.791Z,0.67
2018-12-09T03:45:55.465Z,0.60
2018-12-09T03:48:25.028Z,0.70
2018-12-09T03:50:54.705Z,0.90
2018-12-09T03:53:27.219Z,0.90
2018-12-09T03:55:57.076Z,1.20
2018-12-09T03:58:26.727Z,0.90
2018-12-09T04:00:59.293Z,1.07
2018-12-09T04:03:29.264Z,1.23
2018-12-09T04:06:01.852Z,0.63
2018-12-09T04:11:37.084Z,1.30
2018-12-09T04:14:07.130Z,1.07
2018-12-09T04:16:36.814Z,1.13
2018-12-09T04:19:06.269Z,0.97
2018-12-09T04:21:36.820Z,0.93
2018-12-09T04:24:09.282Z,1.27
2018-12-09T04:26:39.003Z,0.80
2018-12-09T04:29:08.682Z,1.37
2018-12-09T04:31:38.473Z,0.90
2018-12-09T04:34:08.022Z,0.80
2018-12-09T04:36:37.730Z,1.10
2018-12-09T04:39:07.411Z,0.90
2018-12-09T04:41:36.014Z,1.20
2018-12-09T04:44:05.744Z,0.90
2018-12-09T04:46:35.743Z,1.40
2018-12-09T04:49:05.552Z,1.33
2018-12-09T04:51:45.255Z,1.80
2018-12-09T04:54:15.262Z,1.40
2018-12-09T04:56:47.768Z,1.57
2018-12-09T04:59:18.503Z,1.73
2018-12-09T05:01:48.759Z,2.03
2018-12-09T05:04:16.482Z,2.07
2018-12-09T05:06:45.932Z,2.57
2018-12-09T05:09:18.406Z,1.80
2018-12-09T05:11:51.015Z,2.30
2018-12-09T05:14:20.574Z,1.90
2018-12-09T05:16:50.135Z,2.50
2018-12-09T05:19:19.743Z,2.40
2018-12-09T05:21:54.241Z,2.60
2018-12-09T05:24:23.859Z,1.93
2018-12-09T05:26:53.375Z,1.80
2018-12-09T05:29:23.284Z,2.10
2018-12-09T05:31:53.126Z,2.00
2018-12-09T05:34:25.519Z,1.53
2018-12-09T05:36:55.535Z,1.87
2018-12-09T05:39:25.006Z,2.17
2018-12-09T05:41:54.865Z,2.10
2018-12-09T05:44:24.676Z,1.70
2018-12-09T05:46:54.478Z,1.53
2018-12-09T05:49:24.146Z,1.13
2018-12-09T05:51:53.820Z,1.43
2018-12-09T05:54:24.422Z,1.30
2018-12-09T05:56:57.026Z,1.17
2018-12-09T05:59:26.935Z,1.87
2018-12-09T06:02:08.946Z,1.77
2018-12-09T06:04:41.602Z,1.37
2018-12-09T06:10:17.025Z,1.27
2018-12-09T06:12:47.606Z,1.10
2018-12-09T06:15:20.227Z,1.43
2018-12-09T06:17:50.089Z,1.20
2018-12-09T06:20:19.896Z,2.40
2018-12-09T06:22:49.831Z,1.23
2018-12-09T06:25:19.517Z,1.73
2018-12-09T06:27:50.132Z,1.30
2018-12-09T06:30:19.829Z,1.17
2018-12-09T06:32:49.632Z,1.70
2018-12-09T06:35:19.209Z,1.13
2018-12-09T06:37:49.472Z,1.33
2018-12-09T06:40:19.039Z,1.77
2018-12-09T06:42:46.642Z,1.90
2018-12-09T06:45:16.858Z,1.40
2018-12-09T06:47:46.966Z,1.17
2018-12-09T06:50:16.630Z,0.93
2018-12-09T06:52:46.162Z,1.27
2018-12-09T06:55:16.595Z,0.60
2018-12-09T06:57:46.055Z,0.70
2018-12-09T07:00:16.842Z,0.50
2018-12-09T07:02:46.491Z,1.07
2018-12-09T07:05:16.243Z,0.60
2018-12-09T07:07:45.886Z,0.80
2018-12-09T07:10:15.600Z,0.60
2018-12-09T07:12:45.370Z,0.50
2018-12-09T07:15:14.241Z,0.50
2018-12-09T07:17:43.643Z,0.70
2018-12-09T07:20:16.110Z,0.47
2018-12-09T07:22:45.919Z,0.50
2018-12-09T07:25:15.810Z,0.70
2018-12-09T07:27:45.560Z,0.60
2018-12-09T07:30:15.790Z,0.40
2018-12-09T07:32:45.516Z,0.40
2018-12-09T07:35:14.991Z,0.50
2018-12-09T07:37:45.476Z,0.53
2018-12-09T07:40:15.191Z,0.50
2018-12-09T07:42:44.892Z,0.67
2018-12-09T07:45:14.666Z,0.63
2018-12-09T07:47:44.576Z,0.70
2018-12-09T07:50:14.222Z,0.77
2018-12-09T07:52:43.921Z,0.80
2018-12-09T07:55:13.597Z,1.10
2018-12-09T07:57:43.506Z,1.77
2018-12-09T08:00:15.989Z,1.80
2018-12-09T08:02:45.891Z,1.33
2018-12-09T08:08:21.050Z,1.00
2018-12-09T08:10:50.711Z,1.10
2018-12-09T08:13:20.335Z,1.20
2018-12-09T08:15:49.920Z,1.23
2018-12-09T08:18:19.676Z,1.40
2018-12-09T08:20:49.339Z,1.73
2018-12-09T08:23:19.073Z,1.93
2018-12-09T08:25:48.976Z,1.83
2018-12-09T08:28:18.547Z,1.77
2018-12-09T08:30:48.600Z,1.57
2018-12-09T08:33:18.292Z,3.67
2018-12-09T08:35:47.915Z,1.73
2018-12-09T08:38:17.444Z,2.00
2018-12-09T08:40:46.915Z,1.50
2018-12-09T08:43:16.581Z,1.43
2018-12-09T08:45:46.232Z,1.47
2018-12-09T08:48:16.896Z,1.30
2018-12-09T08:50:46.707Z,1.17
2018-12-09T08:53:16.228Z,1.30
2018-12-09T08:55:48.615Z,0.97
2018-12-09T08:58:16.323Z,1.53
2018-12-09T09:00:48.892Z,1.90
2018-12-09T09:03:20.198Z,1.50
2018-12-09T09:05:50.664Z,1.77
2018-12-09T09:08:24.511Z,1.90
2018-12-09T09:10:55.747Z,1.93
2018-12-09T09:13:25.320Z,1.90
2018-12-09T09:15:55.010Z,1.33
2018-12-09T09:18:24.953Z,1.57
2018-12-09T09:20:54.359Z,1.53
2018-12-09T09:25:52.610Z,1.87
2018-12-09T09:30:51.067Z,2.00
2018-12-09T09:33:23.638Z,1.97
2018-12-09T09:35:53.536Z,2.53
2018-12-09T09:38:21.076Z,1.77
2018-12-09T09:40:50.811Z,2.07
2018-12-09T09:43:20.354Z,2.63
2018-12-09T09:45:50.217Z,2.00
2018-12-09T09:48:19.910Z,1.97
2018-12-09T09:50:52.471Z,1.70
2018-12-09T09:53:22.030Z,2.03
2018-12-09T09:55:51.689Z,1.60
2018-12-09T09:58:21.493Z,1.73
2018-12-09T10:00:54.107Z,1.80
2018-12-09T10:03:25.935Z,2.27
2018-12-09T10:05:55.482Z,2.67
2018-12-09T10:08:25.083Z,2.03
2018-12-09T10:10:52.690Z,2.37
2018-12-09T10:13:22.349Z,1.93
2018-12-09T10:15:52.114Z,1.50
2018-12-09T10:18:21.714Z,1.53
2018-12-09T10:20:51.398Z,2.70
2018-12-09T10:23:23.858Z,1.80
2018-12-09T10:28:56.642Z,6.27
2018-12-09T10:31:28.048Z,2.10
2018-12-09T10:33:57.792Z,3.70
2018-12-09T10:36:27.479Z,2.43
2018-12-09T10:38:57.101Z,2.50
2018-12-09T10:41:26.592Z,2.23
2018-12-09T10:43:56.306Z,2.63
2018-12-09T10:46:26.098Z,1.53
2018-12-09T10:48:55.713Z,1.77
2018-12-09T10:51:25.372Z,2.30
2018-12-09T10:53:55.698Z,2.60
2018-12-09T10:56:25.434Z,1.70
2018-12-09T10:58:55.127Z,1.93
2018-12-09T11:01:28.568Z,2.53
2018-12-09T11:03:58.671Z,2.50
2018-12-09T11:06:30.963Z,2.70
2018-12-09T11:09:00.545Z,1.40
2018-12-09T11:11:30.278Z,2.20
2018-12-09T11:13:59.951Z,3.67
2018-12-09T11:16:29.782Z,2.20
2018-12-09T11:18:59.350Z,2.17
2018-12-09T11:21:30.847Z,2.07
2018-12-09T11:24:00.856Z,1.80
2018-12-09T11:26:30.741Z,1.57
2018-12-09T11:29:01.193Z,1.80
2018-12-09T11:31:31.010Z,2.70
2018-12-09T11:34:00.708Z,2.63
2018-12-09T11:36:30.392Z,2.17
2018-12-09T11:39:05.091Z,2.63
2018-12-09T11:41:35.711Z,2.40
2018-12-09T11:44:06.478Z,2.93
2018-12-09T11:46:36.150Z,2.30
2018-12-09T11:49:05.867Z,2.03
2018-12-09T11:51:35.428Z,2.80
2018-12-09T11:54:05.152Z,2.60
2018-12-09T11:56:35.310Z,3.35
2018-12-09T11:59:13.968Z,3.47
2018-12-09T12:01:43.794Z,2.53
2018-12-09T12:04:16.376Z,2.80
2018-12-09T12:06:49.861Z,2.27
2018-12-09T12:09:19.754Z,1.87
2018-12-09T12:11:53.111Z,2.30
2018-12-09T12:14:26.055Z,2.47
2018-12-09T12:16:56.965Z,2.43
2018-12-09T12:19:29.687Z,2.50
2018-12-09T12:21:59.157Z,2.67
2018-12-09T12:24:29.642Z,2.03
2018-12-09T12:27:00.098Z,2.30
2018-12-09T12:29:32.307Z,2.50
2018-12-09T12:32:06.740Z,1.73
2018-12-09T12:34:36.261Z,2.33
2018-12-09T12:37:07.000Z,2.37
2018-12-09T12:39:37.059Z,2.00
2018-12-09T12:42:07.167Z,1.90
2018-12-09T12:44:41.553Z,2.03
2018-12-09T12:47:12.825Z,3.33
2018-12-09T12:49:43.020Z,2.40
2018-12-09T12:52:13.952Z,4.43
2018-12-09T12:54:45.148Z,3.90
2018-12-09T12:57:17.642Z,2.10
2018-12-09T12:59:48.065Z,2.10
2018-12-09T13:02:17.771Z,2.53
2018-12-09T13:04:47.488Z,2.00
2018-12-09T13:07:17.230Z,2.60
2018-12-09T13:09:52.374Z,2.07
2018-12-09T13:12:26.553Z,1.97
2018-12-09T13:15:02.262Z,3.20
2018-12-09T13:17:32.063Z,1.77
2018-12-09T13:23:04.703Z,2.27
2018-12-09T13:25:32.490Z,1.73
2018-12-09T13:28:02.468Z,1.73
2018-12-09T13:30:32.262Z,2.50
2018-12-09T13:33:03.283Z,2.10
2018-12-09T13:38:03.778Z,1.53
2018-12-09T13:43:02.466Z,2.80
2018-12-09T13:45:32.273Z,3.30
2018-12-09T13:48:00.312Z,2.03
2018-12-09T13:50:35.141Z,2.00
2018-12-09T13:53:02.737Z,1.87
2018-12-09T13:55:35.460Z,1.97
2018-12-09T13:58:05.196Z,1.60
2018-12-09T14:00:35.124Z,1.97
2018-12-09T14:03:04.840Z,1.50
2018-12-09T14:05:37.733Z,2.00
2018-12-09T14:08:10.604Z,1.40
2018-12-09T14:10:40.753Z,1.47
2018-12-09T14:13:11.180Z,1.63
2018-12-09T14:15:43.686Z,2.13
2018-12-09T14:18:13.379Z,1.50
2018-12-09T14:20:45.714Z,1.20
2018-12-09T14:23:15.495Z,1.40
2018-12-09T14:25:45.017Z,1.33
2018-12-09T14:28:17.686Z,1.97
2018-12-09T14:30:47.620Z,1.07
2018-12-09T14:33:21.213Z,1.80
2018-12-09T14:35:52.387Z,1.10
2018-12-09T14:38:20.692Z,0.90
2018-12-09T14:43:54.755Z,0.77
2018-12-09T14:46:25.086Z,1.00
2018-12-09T14:48:55.954Z,0.67
2018-12-09T14:51:26.802Z,0.60
2018-12-09T14:53:56.722Z,0.67
2018-12-09T14:56:26.665Z,0.43
2018-12-09T14:58:59.405Z,1.00
2018-12-09T15:01:30.252Z,0.90
2018-12-09T15:04:01.211Z,0.90
2018-12-09T15:06:31.150Z,0.70
2018-12-09T15:09:01.335Z,0.87
2018-12-09T15:11:31.303Z,0.90
2018-12-09T15:14:01.223Z,1.00
2018-12-09T15:16:31.055Z,1.27
2018-12-09T15:19:01.064Z,1.40
2018-12-09T15:21:30.991Z,1.30
2018-12-09T15:24:01.097Z,0.93
2018-12-09T15:26:30.805Z,0.93
2018-12-09T15:28:58.591Z,0.80
2018-12-09T15:31:28.466Z,0.93
2018-12-09T15:33:58.550Z,1.70
2018-12-09T15:36:28.391Z,2.00
2018-12-09T15:38:56.378Z,1.00
2018-12-09T15:41:26.330Z,1.90
2018-12-09T15:43:58.966Z,0.93
2018-12-09T15:46:31.730Z,0.80
2018-12-09T15:49:01.862Z,2.53
2018-12-09T15:51:32.043Z,0.70
2018-12-09T15:54:02.051Z,0.80
2018-12-09T15:59:35.052Z,0.80
2018-12-09T16:02:05.212Z,1.00
2018-12-09T16:04:38.546Z,0.77
2018-12-09T16:07:07.385Z,0.93
2018-12-09T16:09:37.395Z,0.90
2018-12-09T16:12:07.673Z,1.23
2018-12-09T16:14:37.778Z,1.40
2018-12-09T16:17:07.336Z,1.00
2018-12-09T16:19:37.381Z,1.17
2018-12-09T16:22:07.371Z,1.10
2018-12-09T16:24:37.123Z,0.80
2018-12-09T16:27:05.131Z,0.70
2018-12-09T16:29:34.999Z,0.90
2018-12-09T16:32:02.921Z,1.23
2018-12-09T16:34:32.500Z,0.73
2018-12-09T16:37:02.411Z,0.70
2018-12-09T16:39:32.334Z,0.80
2018-12-09T16:42:02.107Z,0.80
2018-12-09T16:44:32.000Z,0.90
2018-12-09T16:47:04.717Z,1.60
2018-12-09T16:49:35.003Z,1.10
2018-12-09T16:52:04.435Z,1.37
2018-12-09T16:54:32.521Z,1.10
2018-12-09T16:57:02.501Z,1.20
2018-12-09T16:59:30.418Z,1.90
2018-12-09T17:02:03.353Z,1.10
2018-12-09T17:04:33.280Z,1.00
2018-12-09T17:07:03.360Z,1.17
2018-12-09T17:09:33.542Z,0.70
2018-12-09T17:12:03.262Z,0.83
2018-12-09T17:14:33.184Z,0.90
2018-12-09T17:17:03.189Z,0.80
2018-12-09T17:19:31.054Z,1.00
2018-12-09T17:25:04.291Z,1.10
2018-12-09T17:27:34.083Z,1.27
2018-12-09T17:30:05.068Z,1.40
2018-12-09T17:32:35.055Z,1.87
2018-12-09T17:35:05.582Z,1.20
2018-12-09T17:37:35.167Z,1.17
2018-12-09T17:40:05.932Z,1.20
2018-12-09T17:42:36.107Z,1.03
2018-12-09T17:45:06.117Z,0.83
2018-12-09T17:50:06.619Z,1.20
2018-12-09T17:52:34.850Z,0.90
2018-12-09T17:58:07.822Z,1.00
2018-12-09T18:00:37.515Z,1.17
2018-12-09T18:06:10.274Z,0.83
2018-12-09T18:11:43.450Z,0.87
2018-12-09T18:14:14.159Z,0.83
2018-12-09T18:16:41.630Z,0.80
2018-12-09T18:19:14.286Z,1.23
2018-12-09T18:21:44.104Z,1.03
2018-12-09T18:27:19.518Z,1.00
2018-12-09T18:29:49.236Z,1.30
2018-12-09T18:32:19.125Z,1.20
2018-12-09T18:34:51.744Z,1.53
2018-12-09T18:37:21.397Z,1.87
2018-12-09T18:39:51.467Z,1.70
2018-12-09T18:42:21.658Z,1.50
2018-12-09T18:44:51.898Z,1.40
2018-12-09T18:50:24.688Z,1.80
2018-12-09T18:52:54.880Z,1.53
2018-12-09T18:55:24.607Z,1.70
2018-12-09T18:57:54.565Z,1.10
2018-12-09T19:00:24.539Z,1.10
2018-12-09T19:02:54.395Z,1.30
2018-12-09T19:05:24.365Z,1.17
2018-12-09T19:07:54.253Z,0.87
2018-12-09T19:10:24.541Z,0.80
2018-12-09T19:12:54.702Z,0.80
2018-12-09T19:15:27.407Z,0.80
2018-12-09T19:17:57.539Z,1.00
2018-12-09T19:20:27.974Z,0.70
2018-12-09T19:23:00.353Z,0.67
2018-12-09T19:25:30.303Z,0.50
2018-12-09T19:28:00.237Z,0.80
2018-12-09T19:30:30.322Z,0.60
2018-12-09T19:33:03.580Z,0.60
2018-12-09T19:35:33.703Z,0.60
2018-12-09T19:38:04.636Z,0.60
2018-12-09T19:40:34.509Z,0.80
2018-12-09T19:43:04.194Z,0.70
2018-12-09T19:45:34.144Z,0.60
2018-12-09T19:48:04.064Z,0.67
2018-12-09T19:50:38.270Z,0.80
2018-12-09T19:53:11.433Z,0.80
2018-12-09T19:55:41.710Z,0.70
2018-12-09T19:58:09.928Z,0.90
2018-12-09T20:00:39.839Z,0.50
2018-12-09T20:03:07.502Z,0.90
2018-12-09T20:05:37.825Z,0.70
2018-12-09T20:08:07.735Z,0.77
2018-12-09T20:10:37.611Z,1.30
2018-12-09T20:13:07.660Z,1.17
2018-12-09T20:15:37.634Z,1.43
2018-12-09T20:18:07.623Z,1.43
2018-12-09T20:20:38.674Z,1.60
2018-12-09T20:23:09.715Z,1.27
2018-12-09T20:25:39.603Z,1.10
2018-12-09T20:28:10.202Z,1.97
2018-12-09T20:30:47.582Z,1.60
2018-12-09T20:33:17.352Z,1.50
2018-12-09T20:35:45.494Z,1.80
2018-12-09T20:38:15.182Z,1.60
2018-12-09T20:40:45.113Z,1.77
2018-12-09T20:43:16.015Z,2.00
2018-12-09T20:48:50.324Z,1.60
2018-12-09T20:51:21.362Z,1.20
2018-12-09T20:53:52.311Z,1.40
2018-12-09T20:56:22.618Z,1.27
2018-12-09T20:58:52.688Z,1.47
2018-12-09T21:01:23.531Z,1.80
2018-12-09T21:03:53.393Z,1.33
2018-12-09T21:06:24.446Z,1.30
2018-12-09T21:15:00.536Z,2.50
2018-12-09T21:17:30.708Z,1.50
2018-12-09T21:19:58.546Z,1.73
2018-12-09T21:22:29.284Z,1.80
2018-12-09T21:24:59.185Z,1.77
2018-12-09T21:30:32.323Z,1.60
2018-12-09T21:33:02.375Z,1.20
2018-12-09T21:35:32.322Z,1.00
2018-12-09T21:38:02.528Z,1.50
2018-12-09T21:40:32.596Z,1.33
2018-12-09T21:43:02.455Z,1.30
2018-12-09T21:45:32.555Z,1.53
2018-12-09T21:48:02.547Z,0.90
2018-12-09T21:50:35.646Z,1.23
2018-12-09T21:53:03.769Z,1.67
2018-12-09T21:55:33.746Z,1.00
2018-12-09T21:58:03.700Z,1.30
2018-12-09T22:00:34.014Z,1.30
2018-12-09T22:03:03.815Z,1.00
2018-12-09T22:05:33.715Z,0.90
2018-12-09T22:08:03.679Z,1.13
2018-12-09T22:10:33.856Z,1.20
2018-12-09T22:13:04.095Z,1.30
2018-12-09T22:15:33.897Z,1.50
2018-12-09T22:18:03.865Z,1.83
2018-12-09T22:20:33.908Z,1.43
2018-12-09T22:23:01.957Z,1.20
2018-12-09T22:25:31.976Z,1.17
2018-12-09T22:28:02.122Z,1.43
2018-12-09T22:30:29.968Z,1.47
2018-12-09T22:32:58.032Z,1.47
2018-12-09T22:35:27.836Z,1.50
2018-12-09T22:37:57.602Z,1.73
2018-12-09T22:40:27.557Z,1.10
2018-12-09T22:43:00.199Z,1.30
2018-12-09T22:45:29.994Z,1.53
2018-12-09T22:47:59.839Z,1.43
2018-12-09T22:53:32.428Z,1.60
2018-12-09T22:56:02.263Z,1.70
2018-12-09T22:58:32.081Z,1.40
2018-12-09T23:01:08.097Z,1.13
2018-12-09T23:03:37.752Z,1.70
2018-12-09T23:09:08.819Z,1.50
2018-12-09T23:11:45.712Z,1.30
2018-12-09T23:14:15.868Z,1.13
2018-12-09T23:16:45.763Z,1.20
2018-12-09T23:19:18.282Z,1.37
2018-12-09T23:21:51.450Z,1.30
2018-12-09T23:24:21.402Z,1.20
2018-12-09T23:26:51.115Z,1.33
2018-12-09T23:29:21.251Z,1.47
2018-12-09T23:31:51.367Z,1.30
2018-12-09T23:37:24.746Z,1.20
2018-12-09T23:39:54.360Z,1.30
2018-12-09T23:42:24.142Z,1.20
2018-12-09T23:44:54.220Z,1.57
2018-12-09T23:47:24.079Z,1.30
2018-12-09T23:49:54.075Z,1.40
2018-12-09T23:52:23.864Z,1.27
2018-12-09T23:54:53.923Z,1.40
2018-12-09T23:57:23.555Z,1.30
